createdAt,value
2018-12-23T00:00:55.068Z,76.53
2018-12-23T00:15:55.556Z,76.15
2018-12-23T00:30:52.460Z,76.53
2018-12-23T00:45:58.449Z,75.18
2018-12-23T01:00:51.622Z,76.45
2018-12-23T01:15:52.838Z,76.90
2018-12-23T01:30:51.660Z,77.00
2018-12-23T01:45:53.539Z,77.14
2018-12-23T02:00:52.909Z,77.49
2018-12-23T02:15:57.339Z,78.12
2018-12-23T02:30:53.378Z,78.28
2018-12-23T02:45:56.248Z,78.95
2018-12-23T03:00:51.208Z,79.32
2018-12-23T03:15:53.118Z,83.77
2018-12-23T03:30:51.458Z,82.94
2018-12-23T03:45:51.894Z,80.21
2018-12-23T04:00:51.492Z,76.83
2018-12-23T04:15:51.237Z,76.90
2018-12-23T04:30:52.420Z,76.27
2018-12-23T04:45:51.148Z,76.20
2018-12-23T05:00:53.608Z,76.14
2018-12-23T05:15:51.556Z,75.97
2018-12-23T05:30:56.622Z,75.07
2018-12-23T05:45:54.898Z,74.77
2018-12-23T06:00:50.895Z,74.57
2018-12-23T06:15:52.831Z,74.03
2018-12-23T06:30:51.577Z,74.83
2018-12-23T06:45:55.476Z,73.85
2018-12-23T07:00:50.862Z,72.88
2018-12-23T07:15:52.806Z,72.40
2018-12-23T07:30:51.720Z,70.58
2018-12-23T07:45:50.775Z,69.31
2018-12-23T08:00:51.010Z,68.39
2018-12-23T08:15:50.946Z,67.45
2018-12-23T08:30:51.409Z,61.17
2018-12-23T08:45:50.808Z,57.04
2018-12-23T09:00:51.221Z,55.74
2018-12-23T09:15:53.629Z,54.15
2018-12-23T09:30:51.124Z,53.57
2018-12-23T09:45:51.074Z,54.78
2018-12-23T10:00:52.186Z,55.73
2018-12-23T10:15:51.913Z,55.76
2018-12-23T10:30:51.691Z,55.05
2018-12-23T10:45:52.045Z,53.63
2018-12-23T11:00:51.173Z,52.42
2018-12-23T11:15:50.586Z,52.10
2018-12-23T11:30:51.405Z,52.69
2018-12-23T11:45:51.349Z,53.78
2018-12-23T12:00:50.838Z,54.08
2018-12-23T12:15:50.688Z,55.24
2018-12-23T12:30:50.619Z,57.82
2018-12-23T12:46:00.324Z,56.90
2018-12-23T13:00:57.137Z,57.82
2018-12-23T13:15:53.801Z,59.57
2018-12-23T13:30:50.961Z,60.19
2018-12-23T14:15:55.811Z,60.28
2018-12-23T14:30:51.700Z,61.78
2018-12-23T14:45:53.205Z,61.93
2018-12-23T15:00:50.667Z,62.89
2018-12-23T15:15:54.217Z,62.61
2018-12-23T15:30:54.097Z,63.85
2018-12-23T15:45:53.544Z,64.59
2018-12-23T16:00:51.390Z,65.27
2018-12-23T16:15:50.918Z,64.97
2018-12-23T16:30:51.241Z,65.51
2018-12-23T16:45:51.657Z,65.80
2018-12-23T17:00:53.194Z,66.66
2018-12-23T17:15:53.059Z,66.57
2018-12-23T17:30:50.459Z,66.33
2018-12-23T17:45:53.331Z,66.27
2018-12-23T18:01:00.249Z,66.46
2018-12-23T18:45:51.509Z,66.83
2018-12-23T19:00:57.926Z,67.59
2018-12-23T22:15:54.858Z,76.11
2018-12-23T22:30:54.899Z,76.55
2018-12-23T22:45:51.521Z,77.08
2018-12-23T23:00:53.607Z,77.20
2018-12-23T23:15:52.692Z,77.43
2018-12-23T23:30:54.239Z,77.35
2018-12-23T23:45:50.562Z,77.44
